Cadiz, KY

8:24 AM CDT on July 26, 2016 (GMT -0500)
enchanted shores | | Change Station

Elev 404 ft 36.86 °N, 87.94 °W | Updated 43 seconds ago

Clear
Clear
79.2 °F
Feels Like 84 °F
N
1.1
Wind Variable Wind from West

Today
High -- | Low -- °F
--% Chance of Precip.
Yesterday
High -- | Low -- °F
Precip. -- in
Pressure 30.03 in
Visibility 10.0 miles
Clouds Clear
Heat Index 84 °F
Dew Point 79 °F
Humidity 99%
Rainfall 0.00 in
Snow Depth Not available.
5:52 AM 8:02 PM
Waning Gibbous, 55% visible
METAR KHOP 261258Z AUTO 20001KT 10SM CLR 26/23 A3004 RMK AO2 SLP169 T02600229
Pressure 30.03 in
Visibility 10.0 miles
Clouds Clear
Heat Index 84 °F
Dew Point 79 °F
Humidity 99%
Rainfall 0.00 in
Snow Depth Not available.
5:52 AM 8:02 PM
Waning Gibbous, 55% visible
METAR KHOP 261258Z AUTO 20001KT 10SM CLR 26/23 A3004 RMK AO2 SLP169 T02600229

10-Day Weather Forecast

Almanac

Astronomy

Jul. 26, 2016 Rise Set
Actual Time
Civil Twilight
Nautical Twilight
Astronomical Twilight
Moon
Length of Visible Light
Length of Day
Tomorrow will be .
, % of the Moon is Illuminated

Today's Extremes

State Highs State Lows

Community

WunderPhotos

Upload Photos

1,927,582 photos uploaded!

WunderBlog® & News

Nearby

Air Quality

  Air Quality AQ Index Pollutant
Not available.

Snow Depth

Station Depth Elevation

Earthquake Activity

City Distance Mag. Time & Date
Minimum magnitude displayed is 2.5.

Coastal Water Temperatures

Place Temperature

Stations

Nearby Weather Stations

Station Location Temp. Windchill Dew Point Humidity Wind Precip. Elev Updated Type
                   

Watches & Warnings

There are currently no watches in effect.